createdAt,value
2023-05-17T00:17:41.311Z,13.10
2023-05-17T00:42:58.349Z,13.10
2023-05-17T00:48:02.252Z,13.10
2023-05-17T00:53:05.180Z,13.10
2023-05-17T01:13:55.665Z,13.00
2023-05-17T01:29:40.556Z,12.90
2023-05-17T01:34:43.694Z,12.90
2023-05-17T01:39:46.921Z,12.90
2023-05-17T01:45:01.716Z,12.80
2023-05-17T01:50:07.211Z,12.80
2023-05-17T02:00:17.262Z,12.90
2023-05-17T02:40:47.769Z,12.70
2023-05-17T03:06:06.110Z,12.50
2023-05-17T03:11:09.331Z,12.60
2023-05-17T03:16:12.609Z,12.50
2023-05-17T03:21:15.943Z,12.40
2023-05-17T03:26:20.066Z,12.40
2023-05-17T03:31:27.074Z,12.40
2023-05-17T03:36:30.194Z,12.40
2023-05-17T03:41:34.024Z,12.40
2023-05-17T03:46:37.184Z,12.40
2023-05-17T03:51:40.975Z,12.40
2023-05-17T03:56:47.386Z,12.40
2023-05-17T04:01:50.501Z,12.50
2023-05-17T04:06:53.380Z,12.50
2023-05-17T04:11:56.699Z,12.50
2023-05-17T04:16:59.912Z,12.40
2023-05-17T04:22:03.088Z,12.40
2023-05-17T04:27:07.167Z,12.40
2023-05-17T04:32:11.784Z,12.40
2023-05-17T04:42:20.826Z,12.90
2023-05-17T04:47:29.289Z,12.60
2023-05-17T04:52:33.237Z,12.60
2023-05-17T04:57:36.283Z,12.20
2023-05-17T05:02:41.129Z,12.50
2023-05-17T05:07:45.754Z,12.50
2023-05-17T05:12:49.440Z,12.50
2023-05-17T05:22:58.709Z,12.50
2023-05-17T05:28:02.553Z,12.60
2023-05-17T05:33:06.881Z,12.70
2023-05-17T05:38:11.079Z,12.80
2023-05-17T05:43:15.303Z,12.80
2023-05-17T05:48:18.326Z,12.80
2023-05-17T05:53:21.296Z,12.90
2023-05-17T05:58:27.527Z,13.00
2023-05-17T06:03:30.918Z,12.90
2023-05-17T06:08:33.807Z,12.90
2023-05-17T06:13:36.787Z,12.80
2023-05-17T06:18:39.875Z,12.80
2023-05-17T06:23:43.130Z,12.80
2023-05-17T06:28:46.354Z,12.80
2023-05-17T06:33:49.392Z,12.90
2023-05-17T06:38:52.522Z,12.70
2023-05-17T06:59:05.178Z,12.60
2023-05-17T07:09:11.166Z,12.30
2023-05-17T07:14:14.097Z,12.10
2023-05-17T07:44:34.997Z,12.70
2023-05-17T08:25:06.498Z,13.20
2023-05-17T08:30:14.714Z,13.20
2023-05-17T08:35:18.194Z,13.10
2023-05-17T08:40:24.426Z,13.10
2023-05-17T08:45:29.721Z,13.20
2023-05-17T08:50:36.244Z,13.20
2023-05-17T08:55:43.140Z,13.20
2023-05-17T09:00:48.033Z,13.10
2023-05-17T09:05:54.887Z,13.10
2023-05-17T09:10:59.696Z,13.10
2023-05-17T09:16:02.521Z,12.90
2023-05-17T09:21:05.469Z,13.00
2023-05-17T09:26:08.884Z,12.80
2023-05-17T09:31:15.535Z,12.80
2023-05-17T09:36:20.875Z,12.70
2023-05-17T09:41:27.683Z,12.80
2023-05-17T09:46:39.064Z,12.80
2023-05-17T10:06:55.349Z,12.80
2023-05-17T10:11:58.401Z,12.80
2023-05-17T10:17:03.647Z,12.50
2023-05-17T10:22:21.671Z,12.40
2023-05-17T10:27:26.922Z,12.40
2023-05-17T10:32:30.100Z,12.80
2023-05-17T10:37:33.987Z,12.20
2023-05-17T10:42:37.103Z,12.10
2023-05-17T10:47:43.740Z,12.20
2023-05-17T10:52:48.553Z,12.10
2023-05-17T10:58:10.414Z,12.00
2023-05-17T11:03:29.280Z,11.90
2023-05-17T11:08:32.531Z,11.90
2023-05-17T11:13:35.494Z,11.90
2023-05-17T11:18:49.437Z,11.80
2023-05-17T11:23:59.286Z,11.50
2023-05-17T11:49:33.994Z,11.60
2023-05-17T11:54:40.709Z,11.50
2023-05-17T11:59:43.821Z,11.50
2023-05-17T12:04:47.257Z,11.60
2023-05-17T12:35:18.738Z,11.50
2023-05-17T12:40:22.252Z,11.40
2023-05-17T12:45:25.241Z,11.40
2023-05-17T12:50:31.492Z,11.40
2023-05-17T12:55:38.700Z,11.50
2023-05-17T13:00:41.668Z,11.30
2023-05-17T13:05:45.746Z,11.10
2023-05-17T13:10:48.616Z,11.10
2023-05-17T13:15:51.428Z,11.30
2023-05-17T13:20:54.246Z,11.00
2023-05-17T13:25:57.171Z,11.00
2023-05-17T13:31:00.046Z,11.00
2023-05-17T13:36:03.208Z,11.00
2023-05-17T13:41:09.378Z,10.90
2023-05-17T13:46:12.448Z,10.80
2023-05-17T13:51:15.448Z,10.90
2023-05-17T13:56:18.720Z,10.80
2023-05-17T14:01:21.582Z,10.70
2023-05-17T14:06:24.541Z,10.70
2023-05-17T14:11:27.502Z,10.60
2023-05-17T14:16:30.325Z,10.30
2023-05-17T14:21:33.251Z,10.50
2023-05-17T14:26:36.079Z,10.50
2023-05-17T14:31:38.834Z,10.50
2023-05-17T14:36:41.937Z,10.50
2023-05-17T14:41:45.151Z,10.50
2023-05-17T14:46:47.999Z,10.50
2023-05-17T14:51:50.973Z,10.60
2023-05-17T14:56:53.765Z,10.50
2023-05-17T15:01:57.123Z,10.60
2023-05-17T15:06:59.957Z,10.60
2023-05-17T15:12:02.820Z,10.50
2023-05-17T15:17:05.795Z,10.60
2023-05-17T15:22:09.117Z,10.50
2023-05-17T15:27:15.723Z,10.40
2023-05-17T15:32:18.620Z,10.40
2023-05-17T15:37:21.814Z,10.40
2023-05-17T15:42:24.559Z,10.30
2023-05-17T15:47:38.669Z,10.30
2023-05-17T15:52:47.681Z,10.30
2023-05-17T15:57:50.513Z,10.40
2023-05-17T16:02:53.593Z,10.40
2023-05-17T16:07:56.559Z,10.30
2023-05-17T16:12:59.947Z,10.40
2023-05-17T16:18:02.976Z,10.30
2023-05-17T16:23:07.125Z,10.30
2023-05-17T16:28:09.876Z,10.30
2023-05-17T16:33:14.742Z,10.30
2023-05-17T16:38:19.203Z,10.10
2023-05-17T16:43:22.442Z,10.10
2023-05-17T16:48:25.283Z,10.00
2023-05-17T16:53:28.574Z,9.90
2023-05-17T16:58:31.353Z,9.80
2023-05-17T17:03:34.361Z,9.80
2023-05-17T17:08:37.258Z,9.80
2023-05-17T17:13:39.957Z,9.80
2023-05-17T17:18:42.765Z,9.80
2023-05-17T17:23:46.367Z,9.90
2023-05-17T17:28:49.281Z,9.80
2023-05-17T17:33:52.293Z,9.80
2023-05-17T17:38:55.172Z,9.80
2023-05-17T17:43:57.981Z,9.80
2023-05-17T17:49:00.934Z,9.90
2023-05-17T17:54:05.752Z,9.90
2023-05-17T17:59:08.772Z,9.90
2023-05-17T18:04:13.796Z,9.90
2023-05-17T18:09:16.732Z,9.90
2023-05-17T18:14:19.862Z,9.90
2023-05-17T18:19:22.903Z,9.90
2023-05-17T18:24:26.263Z,9.90
2023-05-17T18:29:29.141Z,9.90
2023-05-17T18:49:48.436Z,10.00
2023-05-17T18:54:51.505Z,10.10
2023-05-17T18:59:54.550Z,10.00
2023-05-17T19:04:57.790Z,10.00
2023-05-17T19:10:00.974Z,10.00
2023-05-17T19:15:04.430Z,10.00
2023-05-17T19:20:09.151Z,10.00
2023-05-17T19:25:13.380Z,10.10
2023-05-17T19:30:17.334Z,10.00
2023-05-17T19:35:20.260Z,10.00
2023-05-17T19:40:24.432Z,10.00
2023-05-17T19:45:27.529Z,10.10
2023-05-17T19:50:30.990Z,10.00
2023-05-17T19:55:34.876Z,10.10
2023-05-17T20:00:38.833Z,10.00
2023-05-17T20:05:42.489Z,10.00
2023-05-17T20:10:45.359Z,10.00
2023-05-17T20:15:48.465Z,10.00
2023-05-17T20:20:54.499Z,10.00
2023-05-17T20:25:57.369Z,10.00
2023-05-17T20:31:01.145Z,10.10
2023-05-17T20:36:04.328Z,10.10
2023-05-17T20:41:07.770Z,10.10
2023-05-17T20:46:10.898Z,10.20
2023-05-17T20:51:14.255Z,10.20
2023-05-17T20:56:19.607Z,10.30
2023-05-17T21:01:22.864Z,10.30
2023-05-17T21:06:30.229Z,10.30
2023-05-17T21:11:34.777Z,10.30
2023-05-17T21:16:37.564Z,10.30
2023-05-17T21:31:46.809Z,10.30
2023-05-17T21:36:49.649Z,10.40
2023-05-17T21:41:52.447Z,10.30
2023-05-17T21:46:56.947Z,10.40
2023-05-17T21:52:00.549Z,10.50
2023-05-17T21:57:03.401Z,10.40
2023-05-17T22:02:07.194Z,10.40
2023-05-17T22:07:11.569Z,10.40
2023-05-17T22:12:15.102Z,10.40
2023-05-17T22:17:17.980Z,10.50
2023-05-17T22:22:22.069Z,10.50
2023-05-17T22:27:24.893Z,10.40
2023-05-17T22:37:33.158Z,10.50
2023-05-17T22:42:36.538Z,10.60
2023-05-17T22:47:39.628Z,10.50
2023-05-17T22:52:42.981Z,10.50
2023-05-17T22:57:46.587Z,10.50
2023-05-17T23:02:49.754Z,10.50
2023-05-17T23:07:52.594Z,10.60
2023-05-17T23:12:58.530Z,10.50
2023-05-17T23:18:01.597Z,10.50
2023-05-17T23:23:04.583Z,10.50
2023-05-17T23:28:07.459Z,10.50
2023-05-17T23:33:10.196Z,10.50
2023-05-17T23:38:13.006Z,10.50
2023-05-17T23:43:15.786Z,10.50
2023-05-17T23:48:21.008Z,10.50
2023-05-17T23:53:24.594Z,10.50
2023-05-17T23:58:27.281Z,10.40
